createdAt,value
2022-08-25T00:01:27.517Z,98711.47
2022-08-25T00:03:57.524Z,98714.28
2022-08-25T00:06:24.951Z,98713.59
2022-08-25T00:08:51.816Z,98706.72
2022-08-25T00:11:23.923Z,98712.47
2022-08-25T00:13:54.240Z,98717.28
2022-08-25T00:16:22.826Z,98714.88
2022-08-25T00:18:54.307Z,98717.03
2022-08-25T00:21:21.689Z,98717.28
2022-08-25T00:23:48.394Z,98715.63
2022-08-25T00:26:16.310Z,98717.78
2022-08-25T00:28:43.789Z,98712.88
2022-08-25T00:31:16.445Z,98718.88
2022-08-25T00:33:44.893Z,98719.31
2022-08-25T00:36:12.520Z,98710.94
2022-08-25T00:38:44.716Z,98712.88
2022-08-25T00:41:15.014Z,98719.50
2022-08-25T00:43:41.557Z,98722.41
2022-08-25T00:46:10.254Z,98724.38
2022-08-25T00:48:39.120Z,98722.00
2022-08-25T00:51:08.424Z,98731.25
2022-08-25T00:53:35.256Z,98725.25
2022-08-25T00:56:02.472Z,98727.34
2022-08-25T00:58:31.080Z,98720.47
2022-08-25T01:00:58.805Z,98727.06
2022-08-25T01:03:33.051Z,98719.66
2022-08-25T01:06:04.208Z,98723.13
2022-08-25T01:08:32.544Z,98727.91
2022-08-25T01:11:04.908Z,98724.78
2022-08-25T01:13:37.381Z,98722.53
2022-08-25T01:16:04.150Z,98729.13
2022-08-25T01:18:53.002Z,98731.78
2022-08-25T01:21:21.900Z,98729.28
2022-08-25T01:23:50.539Z,98726.63
2022-08-25T01:26:30.073Z,98726.03
2022-08-25T01:29:18.034Z,98728.97
2022-08-25T01:31:45.252Z,98724.63
2022-08-25T01:34:12.636Z,98719.16
2022-08-25T01:36:41.166Z,98726.44
2022-08-25T01:39:07.902Z,98731.75
2022-08-25T01:41:34.445Z,98733.44
2022-08-25T01:44:02.793Z,98733.44
2022-08-25T01:46:29.644Z,98738.88
2022-08-25T01:48:56.311Z,98738.47
2022-08-25T01:51:25.522Z,98736.22
2022-08-25T01:53:52.137Z,98738.63
2022-08-25T01:56:19.259Z,98743.34
2022-08-25T01:58:49.060Z,98739.03
2022-08-25T02:01:20.287Z,98732.69
2022-08-25T02:03:49.687Z,98742.47
2022-08-25T02:06:21.280Z,98736.84
2022-08-25T02:09:00.711Z,98733.19
2022-08-25T02:11:28.422Z,98730.41
2022-08-25T02:13:55.028Z,98732.09
2022-08-25T02:16:28.406Z,98738.38
2022-08-25T02:18:56.139Z,98733.19
2022-08-25T02:21:22.843Z,98728.84
2022-08-25T02:23:49.586Z,98732.19
2022-08-25T02:26:18.937Z,98723.50
2022-08-25T02:28:50.584Z,98721.84
2022-08-25T02:31:18.686Z,98714.00
2022-08-25T02:33:45.575Z,98709.69
2022-08-25T02:36:12.336Z,98702.81
2022-08-25T02:38:39.755Z,98706.56
2022-08-25T02:41:13.268Z,98710.47
2022-08-25T02:43:42.131Z,98712.16
2022-08-25T02:46:10.388Z,98713.38
2022-08-25T02:48:37.741Z,98721.47
2022-08-25T02:51:05.855Z,98725.09
2022-08-25T02:53:33.523Z,98727.91
2022-08-25T02:56:00.297Z,98725.47
2022-08-25T02:58:26.935Z,98717.66
2022-08-25T03:00:53.740Z,98716.09
2022-08-25T03:03:20.727Z,98707.81
2022-08-25T03:05:47.420Z,98707.81
2022-08-25T03:08:14.461Z,98700.25
2022-08-25T03:10:41.410Z,98710.31
2022-08-25T03:13:08.297Z,98708.47
2022-08-25T03:15:37.832Z,98715.47
2022-08-25T03:18:06.127Z,98719.81
2022-08-25T03:20:35.744Z,98710.31
2022-08-25T03:23:03.071Z,98713.25
2022-08-25T03:28:38.931Z,98717.81
2022-08-25T03:31:05.837Z,98712.78
2022-08-25T03:33:32.467Z,98719.19
2022-08-25T03:35:59.356Z,98715.53
2022-08-25T03:38:26.989Z,98723.59
2022-08-25T03:40:53.665Z,98717.44
2022-08-25T03:43:20.385Z,98718.41
2022-08-25T03:45:47.982Z,98721.31
2022-08-25T03:48:16.136Z,98717.84
2022-08-25T03:50:51.490Z,98707.63
2022-08-25T03:53:19.965Z,98708.00
2022-08-25T03:55:47.307Z,98705.50
2022-08-25T03:58:14.374Z,98695.97
2022-08-25T04:00:42.124Z,98698.75
2022-08-25T04:03:08.998Z,98691.75
2022-08-25T04:05:35.635Z,98699.16
2022-08-25T04:08:02.714Z,98699.28
2022-08-25T04:10:29.766Z,98702.19
2022-08-25T04:12:57.531Z,98697.00
2022-08-25T04:15:28.923Z,98700.75
2022-08-25T04:17:59.016Z,98701.25
2022-08-25T04:20:26.310Z,98696.22
2022-08-25T04:22:53.269Z,98698.00
2022-08-25T04:25:20.033Z,98697.44
2022-08-25T04:27:46.720Z,98685.28
2022-08-25T04:30:13.832Z,98700.22
2022-08-25T04:32:40.600Z,98687.22
2022-08-25T04:35:07.728Z,98691.91
2022-08-25T04:37:34.767Z,98693.88
2022-08-25T04:40:01.925Z,98692.91
2022-08-25T04:42:28.653Z,98693.88
2022-08-25T04:44:55.794Z,98684.34
2022-08-25T04:47:22.452Z,98679.03
2022-08-25T04:49:49.278Z,98676.28
2022-08-25T04:52:15.947Z,98672.31
2022-08-25T04:54:43.114Z,98674.84
2022-08-25T04:57:09.962Z,98675.81
2022-08-25T04:59:36.813Z,98682.81
2022-08-25T05:02:05.248Z,98675.44
2022-08-25T05:04:35.249Z,98681.56
2022-08-25T05:07:03.411Z,98671.09
2022-08-25T05:09:32.072Z,98670.16
2022-08-25T05:11:59.995Z,98667.34
2022-08-25T05:14:26.885Z,98670.84
2022-08-25T05:16:54.853Z,98668.91
2022-08-25T05:19:21.691Z,98659.28
2022-08-25T05:21:48.400Z,98670.34
2022-08-25T05:24:15.412Z,98663.09
2022-08-25T05:26:44.052Z,98668.97
2022-08-25T05:29:11.773Z,98659.94
2022-08-25T05:31:42.427Z,98665.94
2022-08-25T05:34:12.139Z,98660.13
2022-08-25T05:36:43.368Z,98662.56
2022-08-25T05:39:10.989Z,98663.63
2022-08-25T05:41:37.942Z,98656.63
2022-08-25T05:44:04.873Z,98661.31
2022-08-25T05:46:31.897Z,98658.63
2022-08-25T05:48:59.111Z,98651.25
2022-08-25T05:51:26.786Z,98660.09
2022-08-25T05:53:53.956Z,98646.38
2022-08-25T05:56:21.164Z,98648.06
2022-08-25T05:58:48.108Z,98635.59
2022-08-25T06:01:48.276Z,98653.78
2022-08-25T06:04:22.542Z,98655.38
2022-08-25T06:06:49.924Z,98661.59
2022-08-25T06:09:16.539Z,98655.66
2022-08-25T06:11:43.256Z,98654.19
2022-08-25T06:14:10.730Z,98646.16
2022-08-25T06:16:39.127Z,98643.22
2022-08-25T06:19:08.119Z,98640.53
2022-08-25T06:21:34.748Z,98644.41
2022-08-25T06:24:02.155Z,98645.78
2022-08-25T06:26:28.812Z,98649.09
2022-08-25T06:28:55.453Z,98644.84
2022-08-25T06:31:22.684Z,98648.59
2022-08-25T06:33:50.260Z,98650.50
2022-08-25T06:36:16.935Z,98641.13
2022-08-25T06:38:43.703Z,98653.38
2022-08-25T06:41:14.017Z,98650.56
2022-08-25T06:43:48.108Z,98654.91
2022-08-25T06:46:26.357Z,98650.22
2022-08-25T06:49:03.030Z,98647.66
2022-08-25T06:51:30.031Z,98649.78
2022-08-25T06:53:56.680Z,98645.56
2022-08-25T06:56:24.049Z,98642.72
2022-08-25T06:58:50.792Z,98647.59
2022-08-25T07:01:26.215Z,98642.38
2022-08-25T07:03:59.683Z,98638.25
2022-08-25T07:06:27.897Z,98632.13
2022-08-25T07:08:54.608Z,98639.88
2022-08-25T07:11:21.547Z,98651.19
2022-08-25T07:13:52.595Z,98648.31
2022-08-25T07:16:20.806Z,98639.78
2022-08-25T07:18:48.394Z,98637.47
2022-08-25T07:21:15.303Z,98644.03
2022-08-25T07:23:42.473Z,98642.19
2022-08-25T07:26:39.346Z,98639.69
2022-08-25T07:29:32.754Z,98639.88
2022-08-25T07:32:05.244Z,98641.97
2022-08-25T07:37:49.643Z,98648.75
2022-08-25T07:40:23.204Z,98649.03
2022-08-25T07:42:52.426Z,98635.97
2022-08-25T07:45:21.478Z,98646.47
2022-08-25T07:47:48.580Z,98640.72
2022-08-25T07:50:18.550Z,98649.38
2022-08-25T07:52:52.099Z,98649.09
2022-08-25T07:55:22.808Z,98640.31
2022-08-25T07:57:52.788Z,98647.72
2022-08-25T08:00:22.586Z,98638.88
2022-08-25T08:02:51.416Z,98647.38
2022-08-25T08:05:18.101Z,98642.72
2022-08-25T08:07:44.739Z,98632.75
2022-08-25T08:10:48.003Z,98630.41
2022-08-25T08:13:01.767Z,98635.22
2022-08-25T08:15:29.957Z,98623.53
2022-08-25T08:17:58.458Z,98615.84
2022-08-25T08:20:27.077Z,98616.09
2022-08-25T08:22:53.900Z,98616.91
2022-08-25T08:25:21.521Z,98610.69
2022-08-25T08:27:54.946Z,98614.00
2022-08-25T08:30:22.286Z,98611.66
2022-08-25T08:33:09.124Z,98609.72
2022-08-25T08:35:37.157Z,98620.16
2022-08-25T08:38:06.938Z,98610.00
2022-08-25T08:41:14.569Z,98617.31
2022-08-25T08:43:43.658Z,98608.34
2022-08-25T08:46:11.246Z,98607.53
2022-08-25T08:48:40.848Z,98606.28
2022-08-25T08:51:09.840Z,98610.38
2022-08-25T08:53:57.220Z,98612.97
2022-08-25T08:56:30.947Z,98608.31
2022-08-25T08:59:14.333Z,98612.88
2022-08-25T09:01:59.153Z,98596.41
2022-08-25T09:04:36.089Z,98612.75
2022-08-25T09:07:09.189Z,98606.75
2022-08-25T09:09:40.126Z,98602.53
2022-08-25T09:12:31.478Z,98604.44
2022-08-25T09:15:18.363Z,98600.06
2022-08-25T09:18:29.791Z,98604.25
2022-08-25T09:21:15.941Z,98605.94
2022-08-25T09:24:05.672Z,98593.09
2022-08-25T09:26:50.983Z,98602.16
2022-08-25T09:29:25.385Z,98596.22
2022-08-25T09:31:57.942Z,98594.38
2022-08-25T09:34:31.893Z,98583.16
2022-08-25T09:36:59.334Z,98589.28
2022-08-25T09:39:27.906Z,98592.72
2022-08-25T09:41:59.287Z,98588.31
2022-08-25T09:44:50.045Z,98585.75
2022-08-25T09:47:28.005Z,98579.53
2022-08-25T09:50:00.716Z,98585.72
2022-08-25T09:52:41.106Z,98590.03
2022-08-25T09:55:08.112Z,98584.19
2022-08-25T09:57:45.217Z,98576.06
2022-08-25T10:00:13.612Z,98567.06
2022-08-25T10:02:42.719Z,98564.59
2022-08-25T10:05:26.135Z,98564.13
2022-08-25T10:07:57.188Z,98565.19
2022-08-25T10:10:35.604Z,98550.88
2022-08-25T10:13:12.176Z,98552.88
2022-08-25T10:15:39.726Z,98552.97
2022-08-25T10:18:15.753Z,98553.78
2022-08-25T10:20:44.848Z,98551.38
2022-08-25T10:23:15.025Z,98539.13
2022-08-25T10:25:59.222Z,98535.66
2022-08-25T10:29:11.910Z,98533.25
2022-08-25T10:32:28.031Z,98535.03
2022-08-25T10:34:58.471Z,98537.50
2022-08-25T10:37:34.737Z,98529.03
2022-08-25T10:40:04.816Z,98528.47
2022-08-25T10:42:54.690Z,98522.97
2022-08-25T10:45:45.764Z,98520.16
2022-08-25T10:48:27.791Z,98518.09
2022-08-25T10:51:37.712Z,98520.78
2022-08-25T10:54:24.591Z,98516.41
2022-08-25T10:56:56.539Z,98518.66
2022-08-25T10:59:59.764Z,98507.97
2022-08-25T11:03:03.973Z,98501.88
2022-08-25T11:05:54.710Z,98492.47
2022-08-25T11:08:40.098Z,98495.06
2022-08-25T11:11:24.304Z,98487.63
2022-08-25T11:13:53.172Z,98487.63
2022-08-25T11:16:53.682Z,98480.53
2022-08-25T11:19:35.001Z,98477.59
2022-08-25T11:22:15.362Z,98470.94
2022-08-25T11:25:00.997Z,98470.09
2022-08-25T11:28:12.183Z,98467.09
2022-08-25T11:30:40.242Z,98456.84
2022-08-25T11:33:11.783Z,98458.75
2022-08-25T11:35:43.255Z,98463.34
2022-08-25T11:38:37.853Z,98454.88
2022-08-25T11:41:27.192Z,98456.50
2022-08-25T11:44:20.104Z,98452.91
2022-08-25T11:47:21.490Z,98454.41
2022-08-25T11:50:23.671Z,98435.25
2022-08-25T11:52:59.818Z,98443.22
2022-08-25T11:55:52.253Z,98444.97
2022-08-25T11:58:49.951Z,98441.56
2022-08-25T12:01:32.585Z,98440.94
2022-08-25T12:04:28.638Z,98439.56
2022-08-25T12:07:06.825Z,98425.94
2022-08-25T12:09:54.629Z,98421.03
2022-08-25T12:12:43.964Z,98422.91
2022-08-25T12:15:33.166Z,98421.47
2022-08-25T12:18:23.196Z,98418.63
2022-08-25T12:20:53.997Z,98419.00
2022-08-25T12:24:10.077Z,98418.81
2022-08-25T12:26:51.965Z,98419.28
2022-08-25T12:29:39.511Z,98424.41
2022-08-25T12:32:43.711Z,98420.06
2022-08-25T12:35:30.588Z,98412.50
2022-08-25T12:38:02.510Z,98414.63
2022-08-25T12:40:58.530Z,98409.47
2022-08-25T12:43:38.085Z,98408.41
2022-08-25T12:46:20.130Z,98404.75
2022-08-25T12:49:01.043Z,98401.81
2022-08-25T12:51:48.575Z,98413.31
2022-08-25T12:54:33.951Z,98407.31
2022-08-25T12:57:05.167Z,98407.56
2022-08-25T12:59:37.760Z,98396.50
2022-08-25T13:02:36.626Z,98394.19
2022-08-25T13:05:12.284Z,98391.97
2022-08-25T13:08:06.945Z,98396.94
2022-08-25T13:11:05.003Z,98386.97
2022-08-25T13:14:04.401Z,98386.97
2022-08-25T13:16:33.512Z,98386.56
2022-08-25T13:19:06.832Z,98388.47
2022-08-25T13:21:37.841Z,98382.78
2022-08-25T13:24:17.152Z,98383.97
2022-08-25T13:26:47.133Z,98377.38
2022-08-25T13:29:22.325Z,98380.84
2022-08-25T13:32:01.449Z,98370.63
2022-08-25T13:34:36.870Z,98369.47
2022-08-25T13:37:26.300Z,98373.34
2022-08-25T13:40:10.952Z,98378.81
2022-08-25T13:42:42.524Z,98363.69
2022-08-25T13:45:15.204Z,98364.91
2022-08-25T13:47:45.739Z,98366.53
2022-08-25T13:50:18.415Z,98359.25
2022-08-25T13:53:23.929Z,98361.22
2022-08-25T13:55:57.122Z,98355.66
2022-08-25T13:58:38.594Z,98352.03
2022-08-25T14:01:45.057Z,98345.03
2022-08-25T14:04:24.737Z,98349.06
2022-08-25T14:07:13.205Z,98351.75
2022-08-25T14:09:55.806Z,98344.78
2022-08-25T14:12:44.843Z,98346.75
2022-08-25T14:15:17.719Z,98342.00
2022-08-25T14:17:48.644Z,98339.28
2022-08-25T14:20:25.662Z,98340.44
2022-08-25T14:22:58.012Z,98331.34
2022-08-25T14:25:26.863Z,98330.25
2022-08-25T14:28:16.479Z,98331.69
2022-08-25T14:30:59.750Z,98331.13
2022-08-25T14:33:34.325Z,98331.69
2022-08-25T14:36:05.415Z,98324.84
2022-08-25T14:38:33.521Z,98317.38
2022-08-25T14:41:00.642Z,98317.94
2022-08-25T14:43:31.541Z,98322.88
2022-08-25T14:46:00.506Z,98311.41
2022-08-25T14:48:35.504Z,98316.88
2022-08-25T14:51:04.273Z,98311.56
2022-08-25T14:53:30.928Z,98320.31
2022-08-25T14:55:58.979Z,98326.34
2022-08-25T14:58:26.755Z,98323.75
2022-08-25T15:00:54.579Z,98323.53
2022-08-25T15:03:31.751Z,98322.03
2022-08-25T15:06:00.602Z,98319.13
2022-08-25T15:08:47.237Z,98324.16
2022-08-25T15:11:14.932Z,98319.16
2022-08-25T15:13:44.669Z,98315.97
2022-08-25T15:16:35.380Z,98313.63
2022-08-25T15:19:06.767Z,98303.16
2022-08-25T15:21:34.142Z,98311.44
2022-08-25T15:24:02.686Z,98308.28
2022-08-25T15:26:29.247Z,98308.41
2022-08-25T15:28:58.161Z,98311.00
2022-08-25T15:31:24.857Z,98311.00
2022-08-25T15:33:53.571Z,98308.25
2022-08-25T15:36:25.565Z,98304.44
2022-08-25T15:38:53.236Z,98309.59
2022-08-25T15:41:21.745Z,98306.09
2022-08-25T15:43:53.913Z,98318.41
2022-08-25T15:46:21.884Z,98316.78
2022-08-25T15:48:48.589Z,98307.44
2022-08-25T15:51:17.699Z,98316.81
2022-08-25T15:53:45.024Z,98307.56
2022-08-25T15:56:26.516Z,98312.91
2022-08-25T15:58:54.349Z,98312.25
2022-08-25T16:01:24.944Z,98312.78
2022-08-25T16:03:51.868Z,98312.72
2022-08-25T16:06:18.586Z,98307.31
2022-08-25T16:08:45.256Z,98311.75
2022-08-25T16:11:20.999Z,98303.00
2022-08-25T16:13:49.337Z,98306.81
2022-08-25T16:16:17.927Z,98300.78
2022-08-25T16:18:45.569Z,98301.38
2022-08-25T16:21:16.636Z,98297.03
2022-08-25T16:23:44.076Z,98298.78
2022-08-25T16:26:13.023Z,98300.94
2022-08-25T16:28:43.655Z,98300.75
2022-08-25T16:31:12.344Z,98295.81
2022-08-25T16:36:15.592Z,98290.38
2022-08-25T16:38:43.363Z,98288.63
2022-08-25T16:41:22.985Z,98283.94
2022-08-25T16:43:50.409Z,98285.91
2022-08-25T16:46:19.132Z,98289.50
2022-08-25T16:48:46.522Z,98284.84
2022-08-25T16:51:22.786Z,98277.09
2022-08-25T16:54:15.866Z,98276.88
2022-08-25T16:56:49.240Z,98279.81
2022-08-25T16:59:22.151Z,98281.03
2022-08-25T17:01:51.145Z,98275.47
2022-08-25T17:04:17.813Z,98283.31
2022-08-25T17:06:51.784Z,98277.03
2022-08-25T17:09:23.046Z,98270.44
2022-08-25T17:11:52.702Z,98275.28
2022-08-25T17:14:21.388Z,98279.56
2022-08-25T17:16:48.609Z,98270.38
2022-08-25T17:19:17.699Z,98271.69
2022-08-25T17:21:46.411Z,98275.09
2022-08-25T17:24:14.068Z,98277.66
2022-08-25T17:26:46.232Z,98273.78
2022-08-25T17:29:13.068Z,98274.38
2022-08-25T17:31:40.155Z,98275.91
2022-08-25T17:34:12.892Z,98276.38
2022-08-25T17:36:43.988Z,98275.13
2022-08-25T17:39:12.333Z,98278.41
2022-08-25T17:41:39.716Z,98275.69
2022-08-25T17:44:07.610Z,98281.38
2022-08-25T17:46:35.009Z,98284.19
2022-08-25T17:49:01.710Z,98282.22
2022-08-25T17:51:29.725Z,98284.19
2022-08-25T17:53:58.605Z,98281.22
2022-08-25T17:56:27.234Z,98280.06
2022-08-25T17:58:55.910Z,98289.31
2022-08-25T18:01:24.687Z,98292.56
2022-08-25T18:03:52.540Z,98285.66
2022-08-25T18:06:22.553Z,98292.38
2022-08-25T18:08:52.258Z,98291.47
2022-08-25T18:11:24.513Z,98289.09
2022-08-25T18:13:53.716Z,98286.66
2022-08-25T18:16:21.287Z,98295.97
2022-08-25T18:18:48.599Z,98292.50
2022-08-25T18:21:17.261Z,98287.19
2022-08-25T18:23:45.196Z,98292.69
2022-08-25T18:26:14.499Z,98302.13
2022-08-25T18:28:43.902Z,98309.66
2022-08-25T18:31:13.252Z,98302.84
2022-08-25T18:33:45.033Z,98305.59
2022-08-25T18:36:12.448Z,98299.81
2022-08-25T18:38:59.361Z,98307.16
2022-08-25T18:41:27.796Z,98306.34
2022-08-25T18:43:54.506Z,98310.09
2022-08-25T18:46:22.765Z,98308.03
2022-08-25T18:48:52.958Z,98310.34
2022-08-25T18:51:23.143Z,98312.00
2022-08-25T18:53:51.191Z,98311.97
2022-08-25T18:56:19.203Z,98316.72
2022-08-25T18:58:46.980Z,98309.25
2022-08-25T19:01:18.552Z,98320.59
2022-08-25T19:03:45.708Z,98323.06
2022-08-25T19:06:12.574Z,98321.78
2022-08-25T19:08:42.089Z,98318.84
2022-08-25T19:11:10.002Z,98332.09
2022-08-25T19:13:37.861Z,98330.19
2022-08-25T19:16:41.029Z,98324.56
2022-08-25T19:19:11.553Z,98335.31
2022-08-25T19:21:38.796Z,98336.06
2022-08-25T19:24:07.956Z,98340.38
2022-08-25T19:26:36.545Z,98333.56
2022-08-25T19:29:08.949Z,98343.06
2022-08-25T19:31:39.203Z,98336.59
2022-08-25T19:34:08.734Z,98340.06
2022-08-25T19:36:35.566Z,98336.97
2022-08-25T19:39:04.980Z,98346.69
2022-08-25T19:41:32.097Z,98343.09
2022-08-25T19:44:01.619Z,98344.34
2022-08-25T19:46:35.679Z,98349.28
2022-08-25T19:49:26.358Z,98347.34
2022-08-25T19:51:55.385Z,98351.84
2022-08-25T19:54:32.370Z,98355.31
2022-08-25T19:56:59.723Z,98355.88
2022-08-25T19:59:34.301Z,98350.44
2022-08-25T20:02:15.535Z,98355.59
2022-08-25T20:04:49.769Z,98352.00
2022-08-25T20:07:18.945Z,98351.94
2022-08-25T20:09:45.578Z,98356.25
2022-08-25T20:14:46.766Z,98360.44
2022-08-25T20:17:23.140Z,98360.19
2022-08-25T20:19:53.028Z,98360.75
2022-08-25T20:22:23.627Z,98353.44
2022-08-25T20:24:56.252Z,98351.69
2022-08-25T20:27:28.308Z,98362.00
2022-08-25T20:29:55.858Z,98359.22
2022-08-25T20:32:23.416Z,98358.13
2022-08-25T20:34:50.435Z,98361.56
2022-08-25T20:37:18.596Z,98364.81
2022-08-25T20:39:46.219Z,98363.06
2022-08-25T20:42:13.685Z,98365.00
2022-08-25T20:44:42.194Z,98368.63
2022-08-25T20:47:10.527Z,98371.41
2022-08-25T20:49:40.029Z,98373.97
2022-08-25T20:52:07.594Z,98367.28
2022-08-25T20:54:34.663Z,98369.69
2022-08-25T20:57:02.642Z,98373.13
2022-08-25T20:59:29.699Z,98363.69
2022-08-25T21:01:56.617Z,98359.03
2022-08-25T21:04:25.921Z,98362.28
2022-08-25T21:06:52.954Z,98361.16
2022-08-25T21:09:23.729Z,98359.03
2022-08-25T21:11:51.301Z,98367.44
2022-08-25T21:16:46.591Z,98374.06
2022-08-25T21:19:16.074Z,98379.13
2022-08-25T21:21:43.834Z,98386.72
2022-08-25T21:24:11.700Z,98384.41
2022-08-25T21:26:48.562Z,98378.28
2022-08-25T21:29:17.384Z,98382.13
2022-08-25T21:31:44.312Z,98382.88
2022-08-25T21:34:12.679Z,98380.34
2022-08-25T21:36:40.547Z,98382.75
2022-08-25T21:39:07.943Z,98385.28
2022-08-25T21:41:37.677Z,98384.16
2022-08-25T21:44:04.583Z,98389.03
2022-08-25T21:46:33.531Z,98379.38
2022-08-25T21:49:01.581Z,98382.09
2022-08-25T21:51:43.664Z,98386.78
2022-08-25T21:54:14.214Z,98384.88
2022-08-25T21:56:43.692Z,98382.84
2022-08-25T21:59:14.061Z,98382.34
2022-08-25T22:01:41.475Z,98383.72
2022-08-25T22:04:10.096Z,98386.56
2022-08-25T22:06:36.878Z,98386.38
2022-08-25T22:09:07.395Z,98377.03
2022-08-25T22:11:35.960Z,98374.41
2022-08-25T22:14:03.600Z,98380.72
2022-08-25T22:16:33.044Z,98377.94
2022-08-25T22:19:00.708Z,98379.63
2022-08-25T22:21:28.001Z,98377.44
2022-08-25T22:23:56.079Z,98382.31
2022-08-25T22:26:23.881Z,98375.81
2022-08-25T22:28:54.124Z,98382.16
2022-08-25T22:31:21.198Z,98384.50
2022-08-25T22:33:48.910Z,98384.69
2022-08-25T22:36:24.807Z,98381.69
2022-08-25T22:38:54.815Z,98382.34
2022-08-25T22:41:22.924Z,98387.19
2022-08-25T22:43:52.900Z,98377.19
2022-08-25T22:46:21.584Z,98384.72
2022-08-25T22:48:50.301Z,98388.38
2022-08-25T22:51:24.357Z,98386.72
2022-08-25T22:53:51.655Z,98382.72
2022-08-25T22:56:29.708Z,98377.69
2022-08-25T22:59:05.567Z,98380.34
2022-08-25T23:01:33.038Z,98387.88
2022-08-25T23:04:01.212Z,98386.03
2022-08-25T23:06:29.405Z,98378.34
2022-08-25T23:08:57.092Z,98378.69
2022-08-25T23:11:28.917Z,98382.69
2022-08-25T23:13:57.651Z,98376.50
2022-08-25T23:16:25.154Z,98383.50
2022-08-25T23:18:52.840Z,98383.50
2022-08-25T23:21:40.975Z,98384.69
2022-08-25T23:24:11.838Z,98383.84
2022-08-25T23:26:42.646Z,98385.84
2022-08-25T23:29:18.742Z,98385.34
2022-08-25T23:31:47.826Z,98388.00
2022-08-25T23:34:16.003Z,98375.00
2022-08-25T23:36:43.448Z,98379.66
2022-08-25T23:39:11.465Z,98380.00
2022-08-25T23:41:38.719Z,98379.47
2022-08-25T23:44:06.702Z,98375.81
2022-08-25T23:46:36.177Z,98377.47
2022-08-25T23:49:05.599Z,98377.97
2022-08-25T23:51:38.125Z,98370.59
2022-08-25T23:54:09.213Z,98368.09
2022-08-25T23:56:42.479Z,98368.25
2022-08-25T23:59:13.007Z,98363.91
